createdAt,value
2018-07-09T00:03:21.160Z,8.73
2018-07-09T00:08:05.743Z,5.73
2018-07-09T00:12:50.078Z,6.57
2018-07-09T00:17:35.346Z,6.57
2018-07-09T00:22:19.915Z,7.23
2018-07-09T00:27:04.235Z,5.73
2018-07-09T00:31:48.684Z,6.70
2018-07-09T00:36:33.116Z,6.93
2018-07-09T00:41:17.396Z,7.63
2018-07-09T00:46:01.895Z,7.00
2018-07-09T00:50:46.268Z,7.57
2018-07-09T00:55:31.302Z,7.90
2018-07-09T01:00:15.743Z,8.43
2018-07-09T01:05:00.124Z,8.73
2018-07-09T01:09:44.625Z,9.60
2018-07-09T01:14:28.965Z,7.00
2018-07-09T01:19:14.338Z,7.93
2018-07-09T01:23:58.874Z,6.13
2018-07-09T01:28:43.250Z,9.17
2018-07-09T01:33:27.645Z,7.73
2018-07-09T01:38:12.158Z,7.60
2018-07-09T01:42:56.515Z,9.70
2018-07-09T01:47:40.922Z,10.53
2018-07-09T01:52:25.335Z,8.47
2018-07-09T01:57:09.330Z,7.20
2018-07-09T02:01:53.578Z,7.00
2018-07-09T02:06:38.108Z,7.30
2018-07-09T02:11:22.515Z,9.30
2018-07-09T02:16:07.007Z,8.63
2018-07-09T02:20:51.401Z,8.33
2018-07-09T02:25:35.846Z,12.70
2018-07-09T02:30:20.320Z,7.47
2018-07-09T02:35:04.707Z,9.07
2018-07-09T02:39:49.321Z,8.73
2018-07-09T02:44:33.704Z,8.80
2018-07-09T02:49:18.230Z,9.10
2018-07-09T02:54:02.577Z,6.63
2018-07-09T02:58:47.024Z,9.40
2018-07-09T03:03:31.341Z,6.20
2018-07-09T03:08:15.794Z,8.20
2018-07-09T03:13:00.062Z,8.23
2018-07-09T03:17:44.507Z,6.07
2018-07-09T03:22:28.800Z,7.50
2018-07-09T03:27:13.190Z,8.07
2018-07-09T03:31:57.574Z,11.90
2018-07-09T03:36:41.934Z,8.83
2018-07-09T03:41:26.251Z,7.63
2018-07-09T03:46:10.682Z,6.93
2018-07-09T03:50:55.106Z,8.83
2018-07-09T03:55:39.450Z,9.63
2018-07-09T04:00:23.867Z,7.63
2018-07-09T04:05:08.317Z,5.93
2018-07-09T04:09:52.756Z,9.20
2018-07-09T04:14:37.247Z,7.07
2018-07-09T04:19:21.549Z,9.23
2018-07-09T04:24:05.986Z,8.40
2018-07-09T04:28:50.396Z,9.37
2018-07-09T04:33:34.714Z,8.60
2018-07-09T04:38:19.123Z,7.53
2018-07-09T04:43:03.443Z,7.67
2018-07-09T04:47:47.832Z,7.13
2018-07-09T04:52:32.208Z,7.00
2018-07-09T04:57:16.532Z,6.93
2018-07-09T05:02:00.906Z,7.87
2018-07-09T05:06:45.260Z,7.80
2018-07-09T05:11:29.638Z,7.53
2018-07-09T05:16:14.022Z,8.17
2018-07-09T05:20:59.423Z,6.90
2018-07-09T05:25:43.818Z,7.67
2018-07-09T05:30:28.246Z,6.60
2018-07-09T05:35:12.288Z,8.43
2018-07-09T05:39:56.806Z,7.03
2018-07-09T05:44:41.199Z,6.60
2018-07-09T05:49:25.752Z,7.37
2018-07-09T05:54:10.277Z,5.83
2018-07-09T05:58:55.055Z,9.23
2018-07-09T06:03:39.442Z,5.13
2018-07-09T06:08:23.902Z,6.83
2018-07-09T06:13:08.779Z,5.70
2018-07-09T06:17:53.142Z,9.17
2018-07-09T06:22:37.562Z,7.50
2018-07-09T06:27:22.103Z,6.33
2018-07-09T06:32:06.674Z,8.97
2018-07-09T06:36:51.189Z,7.13
2018-07-09T06:41:35.552Z,6.43
2018-07-09T06:46:20.043Z,7.87
2018-07-09T06:51:04.383Z,6.37
2018-07-09T06:55:48.895Z,5.47
2018-07-09T07:00:33.246Z,7.67
2018-07-09T07:05:17.846Z,10.03
2018-07-09T07:10:02.182Z,7.13
2018-07-09T07:14:46.548Z,10.57
2018-07-09T07:19:31.170Z,6.07
2018-07-09T07:24:15.571Z,7.37
2018-07-09T07:28:59.964Z,6.13
2018-07-09T07:33:44.367Z,6.13
2018-07-09T07:38:28.847Z,5.07
2018-07-09T07:43:13.237Z,5.57
2018-07-09T07:47:57.610Z,5.80
2018-07-09T07:52:41.998Z,5.80
2018-07-09T07:57:26.469Z,5.60
2018-07-09T08:02:10.843Z,6.90
2018-07-09T08:06:55.478Z,5.97
2018-07-09T08:11:48.559Z,4.80
2018-07-09T08:16:24.518Z,6.20
2018-07-09T08:21:09.035Z,7.93
2018-07-09T08:25:53.452Z,5.73
2018-07-09T08:30:37.916Z,7.63
2018-07-09T08:35:22.246Z,5.87
2018-07-09T08:40:06.671Z,6.07
2018-07-09T08:44:51.088Z,5.03
2018-07-09T08:49:35.452Z,6.47
2018-07-09T08:54:19.896Z,6.57
2018-07-09T08:59:04.359Z,4.37
2018-07-09T09:03:48.784Z,3.93
2018-07-09T09:08:33.293Z,5.00
2018-07-09T09:13:17.735Z,5.10
2018-07-09T09:18:02.182Z,5.93
2018-07-09T09:22:46.595Z,4.83
2018-07-09T09:27:30.968Z,3.17
2018-07-09T09:32:15.394Z,5.10
2018-07-09T09:36:59.744Z,5.77
2018-07-09T09:41:44.093Z,5.83
2018-07-09T09:46:28.507Z,5.27
2018-07-09T09:51:12.894Z,5.27
2018-07-09T09:55:57.245Z,5.93
2018-07-09T10:00:46.728Z,4.97
2018-07-09T10:05:31.603Z,6.17
2018-07-09T10:10:16.007Z,4.63
2018-07-09T10:15:00.432Z,4.90
2018-07-09T10:19:44.873Z,2.83
2018-07-09T10:24:29.324Z,3.97
2018-07-09T10:29:13.717Z,4.60
2018-07-09T10:33:58.308Z,5.60
2018-07-09T10:38:42.733Z,3.67
2018-07-09T10:43:27.301Z,2.10
2018-07-09T10:48:11.697Z,5.00
2018-07-09T10:52:56.078Z,5.43
2018-07-09T10:57:40.506Z,2.90
2018-07-09T11:02:25.195Z,1.73
2018-07-09T11:07:09.559Z,4.43
2018-07-09T11:11:54.013Z,2.93
2018-07-09T11:16:38.510Z,2.23
2018-07-09T11:21:22.901Z,3.00
2018-07-09T11:26:07.729Z,3.03
2018-07-09T11:30:52.147Z,3.53
2018-07-09T11:35:37.737Z,5.33
2018-07-09T11:40:22.192Z,4.22
2018-07-09T11:45:06.611Z,3.07
2018-07-09T11:49:51.064Z,4.30
2018-07-09T11:54:35.538Z,5.50
2018-07-09T11:59:20.017Z,2.87
2018-07-09T12:04:04.550Z,2.30
2018-07-09T12:08:48.880Z,3.07
2018-07-09T12:13:33.496Z,2.57
2018-07-09T12:18:17.877Z,5.00
2018-07-09T12:23:02.266Z,2.53
2018-07-09T12:27:46.708Z,3.67
2018-07-09T12:32:31.250Z,3.20
2018-07-09T12:37:15.662Z,2.47
2018-07-09T12:42:00.060Z,4.73
2018-07-09T12:46:44.018Z,2.87
2018-07-09T12:51:28.236Z,3.13
2018-07-09T12:56:12.655Z,2.37
2018-07-09T13:00:57.077Z,1.53
2018-07-09T13:05:41.547Z,3.37
2018-07-09T13:10:26.147Z,2.27
2018-07-09T13:15:10.613Z,3.33
2018-07-09T13:19:55.189Z,2.58
2018-07-09T13:24:39.574Z,4.05
2018-07-09T13:29:24.067Z,5.20
2018-07-09T13:34:08.413Z,2.58
2018-07-09T13:38:52.945Z,1.60
2018-07-09T13:43:37.474Z,3.53
2018-07-09T13:48:21.917Z,6.30
2018-07-09T13:53:06.518Z,3.47
2018-07-09T13:57:51.174Z,5.00
2018-07-09T14:02:35.609Z,3.60
2018-07-09T14:07:19.962Z,3.67
2018-07-09T14:12:04.338Z,1.80
2018-07-09T14:16:48.691Z,7.47
2018-07-09T14:21:33.074Z,2.47
2018-07-09T14:26:17.430Z,1.17
2018-07-09T14:31:01.881Z,1.33
2018-07-09T14:35:46.316Z,1.87
2018-07-09T14:40:30.714Z,2.30
2018-07-09T14:45:14.893Z,3.90
2018-07-09T14:49:59.034Z,4.03
2018-07-09T14:54:43.722Z,0.97
2018-07-09T14:59:28.118Z,2.63
2018-07-09T15:04:12.581Z,2.30
2018-07-09T15:08:57.009Z,3.23
2018-07-09T15:13:41.487Z,2.87
2018-07-09T15:18:25.954Z,1.17
2018-07-09T15:23:10.383Z,1.90
2018-07-09T15:27:54.734Z,0.97
2018-07-09T15:32:39.258Z,2.77
2018-07-09T15:37:23.663Z,1.97
2018-07-09T15:42:08.122Z,1.73
2018-07-09T15:46:52.530Z,1.93
2018-07-09T15:51:36.895Z,2.23
2018-07-09T15:56:21.361Z,4.30
2018-07-09T16:01:05.703Z,2.67
2018-07-09T16:05:50.040Z,1.20
2018-07-09T16:10:34.433Z,2.67
2018-07-09T16:15:18.834Z,3.70
2018-07-09T16:20:03.155Z,3.70
2018-07-09T16:24:47.555Z,2.23
2018-07-09T16:29:31.902Z,2.67
2018-07-09T16:34:16.254Z,4.93
2018-07-09T16:39:00.703Z,2.37
2018-07-09T16:43:45.209Z,2.72
2018-07-09T16:48:29.591Z,1.90
2018-07-09T16:53:13.998Z,4.40
2018-07-09T16:57:58.421Z,1.95
2018-07-09T17:02:42.809Z,3.83
2018-07-09T17:07:27.143Z,4.13
2018-07-09T17:12:11.520Z,3.67
2018-07-09T17:16:55.894Z,1.20
2018-07-09T17:21:40.370Z,2.90
2018-07-09T17:26:24.868Z,2.83
2018-07-09T17:31:09.267Z,2.13
2018-07-09T17:35:53.624Z,3.23
2018-07-09T17:40:38.103Z,2.27
2018-07-09T17:45:22.479Z,2.27
2018-07-09T17:50:07.015Z,3.97
2018-07-09T17:54:51.448Z,2.10
2018-07-09T17:59:35.859Z,1.83
2018-07-09T18:04:20.510Z,2.10
2018-07-09T18:09:05.608Z,1.40
2018-07-09T18:13:50.344Z,2.60
2018-07-09T18:18:34.881Z,5.27
2018-07-09T18:23:19.305Z,3.43
2018-07-09T18:28:03.630Z,3.70
2018-07-09T18:32:48.112Z,4.13
2018-07-09T18:37:32.499Z,5.57
2018-07-09T18:42:16.551Z,4.63
2018-07-09T18:47:00.743Z,4.40
2018-07-09T18:51:45.109Z,4.53
2018-07-09T18:56:29.599Z,3.40
2018-07-09T19:01:14.064Z,2.40
2018-07-09T19:07:02.720Z,4.30
2018-07-09T19:11:47.173Z,4.40
2018-07-09T19:16:31.815Z,2.53
2018-07-09T19:21:29.903Z,3.50
2018-07-09T19:26:13.018Z,3.53
2018-07-09T19:30:56.218Z,3.23
2018-07-09T19:35:39.538Z,4.97
2018-07-09T19:40:23.269Z,4.10
2018-07-09T19:45:06.419Z,5.30
2018-07-09T19:49:49.889Z,3.03
2018-07-09T19:54:33.256Z,4.50
2018-07-09T19:59:16.633Z,4.70
2018-07-09T20:03:59.815Z,3.27
2018-07-09T20:08:48.455Z,3.10
2018-07-09T20:14:01.893Z,5.03
2018-07-09T20:18:45.203Z,3.40
2018-07-09T20:23:28.480Z,3.43
2018-07-09T20:28:11.716Z,4.60
2018-07-09T20:32:54.969Z,2.40
2018-07-09T20:37:38.245Z,2.53
2018-07-09T20:42:21.515Z,5.10
2018-07-09T20:47:04.724Z,3.30
2018-07-09T20:51:48.053Z,3.33
2018-07-09T20:56:31.374Z,6.07
2018-07-09T21:01:14.639Z,6.63
2018-07-09T21:05:57.887Z,3.53
2018-07-09T21:10:41.318Z,4.60
2018-07-09T21:15:25.885Z,5.40
2018-07-09T21:20:08.970Z,2.73
2018-07-09T21:24:52.215Z,4.23
2018-07-09T21:29:35.505Z,3.63
2018-07-09T21:34:18.892Z,3.97
2018-07-09T21:39:02.102Z,2.70
2018-07-09T21:43:45.313Z,3.10
2018-07-09T21:48:29.783Z,2.50
2018-07-09T21:53:12.767Z,4.63
2018-07-09T21:57:56.028Z,7.47
2018-07-09T22:02:39.368Z,2.97
2018-07-09T22:07:22.487Z,7.83
2018-07-09T22:12:05.614Z,2.93
2018-07-09T22:16:48.755Z,6.17
2018-07-09T22:21:32.157Z,3.97
2018-07-09T22:26:15.149Z,3.10
2018-07-09T22:30:59.644Z,3.03
2018-07-09T22:35:44.031Z,3.30
2018-07-09T22:40:28.328Z,3.73
2018-07-09T22:45:12.682Z,5.27
2018-07-09T22:49:57.103Z,6.03
2018-07-09T22:54:41.504Z,2.83
2018-07-09T22:59:25.816Z,5.07
2018-07-09T23:04:10.233Z,4.03
2018-07-09T23:11:07.569Z,6.10
2018-07-09T23:16:03.057Z,3.67
2018-07-09T23:21:02.326Z,4.43
2018-07-09T23:25:45.561Z,4.77
2018-07-09T23:30:28.749Z,4.43
2018-07-09T23:35:11.893Z,4.00
2018-07-09T23:39:55.039Z,4.73
2018-07-09T23:44:38.211Z,3.67
2018-07-09T23:49:21.608Z,7.50
2018-07-09T23:54:04.856Z,4.03
2018-07-09T23:59:29.811Z,2.63
